• Join FlightAware (Why Join?)
  • Login
  • US Flag 
11:11PM EDT


 

Airport Tracker/Info


-or-


 

Live Flight TrackerFlight Track Log ✈ UAL1033 ✈ 15-Nov-2013 ✈ MPTO / PTY - KIAH

Flight Track Log - Related Links

Times and Time Zones

All times are in EST time to prevent confusion due to time zone crossing. See the UAL1033 flight status page for this flight to view local times or setup timezone preferences in your user account.

Time Position Orientation Groundspeed Altitude Reporting Facility
EST Latitude Longitude Course Direction KTS MPH feet Rate Location/Type
03:15PM 9.2844 -79.8417 295° West  Level FlightAware Approximate
03:16PM 9.3375 -79.9564 295° West  Level FlightAware Approximate
03:17PM 9.3906 -80.0711 295° West  Level FlightAware Approximate
03:18PM 9.4437 -80.1858 295° West  Level FlightAware Approximate
03:19PM 9.4968 -80.3006 295° West  Level FlightAware Approximate
03:20PM 9.5498 -80.4154 295° West  Level FlightAware Approximate
03:21PM 9.6028 -80.5302 295° West  Level FlightAware Approximate
03:22PM 9.7087 -80.5976 296° West  Level Estimated
03:23PM 9.7589 -80.7138 294° West  Level FlightAware Approximate
03:24PM 9.8091 -80.8299 294° West  Level FlightAware Approximate
03:25PM 9.8592 -80.9462 294° West  Level FlightAware Approximate
03:26PM 9.9093 -81.0624 294° West  Level FlightAware Approximate
03:27PM 9.9594 -81.1787 294° West  Level FlightAware Approximate
03:28PM 10.0094 -81.2950 294° West  Level FlightAware Approximate
03:29PM 10.0594 -81.4114 294° West  Level FlightAware Approximate
03:30PM 10.1093 -81.5278 294° West  Level FlightAware Approximate
03:31PM 10.1592 -81.6442 294° West  Level FlightAware Approximate
03:32PM 10.2091 -81.7607 294° West  Level FlightAware Approximate
03:33PM 10.2589 -81.8772 293° West  Level FlightAware Approximate
03:34PM 10.3087 -81.9938 293° West  Level FlightAware Approximate
03:35PM 10.3584 -82.1104 293° West  Level FlightAware Approximate
03:36PM 10.4081 -82.2270 293° West  Level FlightAware Approximate
03:37PM 10.4578 -82.3436 293° West  Level FlightAware Approximate
03:38PM 10.5661 -82.4071 295° West  Level Estimated
03:39PM 10.6169 -82.5233 294° West  Level FlightAware Approximate
03:40PM 10.6676 -82.6396 294° West  Level FlightAware Approximate
03:41PM 10.7183 -82.7559 294° West  Level FlightAware Approximate
03:42PM 10.7690 -82.8722 294° West  Level FlightAware Approximate
03:43PM 10.8196 -82.9885 294° West  Level FlightAware Approximate
03:44PM 10.8692 -83.1027 294° West  Level FlightAware Approximate
03:45PM 10.9188 -83.2169 294° West  Level FlightAware Approximate
03:46PM 10.9683 -83.3311 294° West  Level FlightAware Approximate
03:47PM 11.0177 -83.4453 294° West  Level FlightAware Approximate
03:48PM 11.0672 -83.5596 294° West  Level FlightAware Approximate
03:49PM 11.1166 -83.6739 294° West  Level FlightAware Approximate
03:50PM 11.1659 -83.7883 294° West  Level FlightAware Approximate
03:51PM 11.2152 -83.9027 294° West  Level FlightAware Approximate
03:52PM 11.2645 -84.0172 294° West  Level FlightAware Approximate
03:53PM 11.3137 -84.1317 294° West  Level FlightAware Approximate
03:54PM 11.3628 -84.2462 294° West  Level FlightAware Approximate
03:55PM 11.4119 -84.3607 294° West  Level FlightAware Approximate
03:56PM 11.4610 -84.4753 294° West  Level FlightAware Approximate
03:57PM 11.5100 -84.5900 294° West  Level FlightAware Approximate
03:58PM 11.5590 -84.7047 294° West  Level FlightAware Approximate
03:59PM 11.6080 -84.8194 294° West  Level FlightAware Approximate
04:00PM 11.6569 -84.9341 294° West  Level FlightAware Approximate
04:01PM 11.7057 -85.0489 293° West  Level FlightAware Approximate
04:02PM 11.7545 -85.1638 293° West  Level FlightAware Approximate
04:03PM 11.8033 -85.2787 293° West  Level FlightAware Approximate
04:04PM 11.8520 -85.3936 293° West  Level FlightAware Approximate
04:05PM 11.9007 -85.5086 293° West  Level FlightAware Approximate
04:06PM 11.9493 -85.6236 293° West  Level FlightAware Approximate
04:07PM 11.9979 -85.7386 293° West  Level FlightAware Approximate
04:08PM 12.1090 -85.7914 295° West  Level Estimated
04:09PM 12.1571 -85.9068 293° West  Level FlightAware Approximate
04:10PM 12.2050 -86.0222 293° West  Level FlightAware Approximate
04:11PM 12.2530 -86.1376 293° West  Level FlightAware Approximate
04:12PM 12.3009 -86.2531 293° West  Level FlightAware Approximate
04:13PM 12.3487 -86.3686 293° West  Level FlightAware Approximate
04:14PM 12.3965 -86.4842 293° West  Level FlightAware Approximate
04:15PM 12.4442 -86.5998 293° West  Level FlightAware Approximate
04:16PM 12.4919 -86.7154 293° West  Level FlightAware Approximate
04:17PM 12.5396 -86.8311 293° West  Level FlightAware Approximate
04:18PM 12.5871 -86.9469 293° West  Level FlightAware Approximate
04:19PM 12.6347 -87.0627 293° West  Level FlightAware Approximate
04:20PM 12.6822 -87.1785 293° West  Level FlightAware Approximate
04:21PM 12.7296 -87.2943 293° West  Level FlightAware Approximate
04:22PM 12.7770 -87.4102 293° West  Level FlightAware Approximate
04:23PM 12.8244 -87.5262 293° West  Level FlightAware Approximate
04:24PM 12.8716 -87.6422 293° West  Level FlightAware Approximate
04:25PM 12.9189 -87.7582 293° West  Level FlightAware Approximate
04:26PM 12.9661 -87.8743 293° West  Level FlightAware Approximate
04:27PM 13.0132 -87.9904 293° West  Level FlightAware Approximate
04:28PM 13.0603 -88.1066 293° West  Level FlightAware Approximate
04:29PM 13.1073 -88.2228 293° West  Level FlightAware Approximate
04:30PM 13.1543 -88.3391 293° West  Level FlightAware Approximate
04:31PM 13.2012 -88.4554 293° West  Level FlightAware Approximate
04:32PM 13.2481 -88.5718 292° West  Level FlightAware Approximate
04:33PM 13.3637 -88.6137 292° West  Level Estimated
04:34PM 13.4793 -88.6556 309° West  Level Estimated
04:35PM 13.5436 -88.7629 302° West  Level FlightAware Approximate
04:36PM 13.6079 -88.8703 302° West  Level FlightAware Approximate
04:37PM 13.6721 -88.9778 302° West  Level FlightAware Approximate
04:38PM 13.7363 -89.0852 302° West  Level FlightAware Approximate
04:39PM 13.8005 -89.1928 302° West  Level FlightAware Approximate
04:40PM 13.8646 -89.3004 302° West  Level FlightAware Approximate
04:41PM 13.9286 -89.4081 302° West  Level FlightAware Approximate
04:42PM 13.9926 -89.5158 301° West  Level FlightAware Approximate
04:43PM 14.0566 -89.6236 301° West  Level FlightAware Approximate
04:44PM 14.1205 -89.7314 301° West  Level FlightAware Approximate
04:45PM 14.1844 -89.8393 301° West  Level FlightAware Approximate
04:46PM 14.2482 -89.9473 301° West  Level FlightAware Approximate
04:47PM 14.3120 -90.0553 301° West  Level FlightAware Approximate
04:48PM 14.3757 -90.1634 301° West  Level FlightAware Approximate
04:49PM 14.4934 -90.1986 309° West  Level Estimated
04:50PM 14.5584 -90.3060 302° West  Level FlightAware Approximate
04:51PM 14.6234 -90.4134 302° West  Level FlightAware Approximate
04:52PM 14.6883 -90.5209 302° West  Level FlightAware Approximate
04:53PM 14.7532 -90.6284 302° West  Level FlightAware Approximate
04:54PM 14.8180 -90.7360 302° West  Level FlightAware Approximate
04:55PM 14.9365 -90.7685 309° West  Level Estimated
04:56PM 15.0050 -90.8737 304° West  Level FlightAware Approximate
04:57PM 15.0734 -90.9790 304° West  Level FlightAware Approximate
04:58PM 15.1418 -91.0844 304° West  Level FlightAware Approximate
04:59PM 15.2101 -91.1899 304° West  Level FlightAware Approximate
05:00PM 15.2784 -91.2954 304° West  Level FlightAware Approximate
05:01PM 15.3467 -91.4009 304° West  Level FlightAware Approximate
05:02PM 15.4149 -91.5066 304° West  Level FlightAware Approximate
05:03PM 15.4830 -91.6123 304° West  Level FlightAware Approximate
05:04PM 15.6026 -91.6402 309° West  Level Estimated
05:05PM 15.6739 -91.7438 306° West  Level FlightAware Approximate
05:06PM 15.7451 -91.8474 306° West  Level FlightAware Approximate
05:07PM 15.8163 -91.9511 306° West  Level FlightAware Approximate
05:08PM 15.8874 -92.0549 305° West  Level FlightAware Approximate
05:09PM 15.9585 -92.1587 305° West  Level FlightAware Approximate
05:10PM 16.0295 -92.2626 305° West  Level FlightAware Approximate
05:11PM 16.1005 -92.3667 305° West  Level FlightAware Approximate
05:12PM 16.1714 -92.4707 305° West  Level FlightAware Approximate
05:13PM 16.2426 -92.5753 305° West  Level FlightAware Approximate
05:14PM 16.3137 -92.6799 305° West  Level FlightAware Approximate
05:15PM 16.3848 -92.7846 305° West  Level FlightAware Approximate
05:16PM 16.4558 -92.8894 305° West  Level FlightAware Approximate
05:17PM 16.5267 -92.9942 305° West  Level FlightAware Approximate
05:18PM 16.6484 -93.0136 318° Northwest  Level Estimated
05:19PM 16.7331 -93.1068 314° West  Level FlightAware Approximate
05:20PM 16.8178 -93.2001 313° West  Level FlightAware Approximate
05:21PM 16.9024 -93.2934 313° West  Level FlightAware Approximate
05:22PM 16.9869 -93.3869 313° West  Level FlightAware Approximate
05:23PM 17.0715 -93.4804 313° West  Level FlightAware Approximate
05:24PM 17.1560 -93.5740 313° West  Level FlightAware Approximate
05:25PM 17.2404 -93.6677 313° West  Level FlightAware Approximate
05:26PM 17.3248 -93.7615 313° West  Level FlightAware Approximate
05:27PM 17.4092 -93.8554 313° West  Level FlightAware Approximate
05:28PM 17.4935 -93.9493 313° West  Level FlightAware Approximate
05:29PM 17.5778 -94.0434 313° West  Level FlightAware Approximate
05:30PM 17.6620 -94.1375 313° West  Level FlightAware Approximate
05:31PM 17.7846 -94.1485 308° West  Level Estimated
05:32PM 17.8568 -94.2532 306° West  Level FlightAware Approximate
05:33PM 17.9290 -94.3579 306° West  Level FlightAware Approximate
05:34PM 18.0011 -94.4628 306° West  Level FlightAware Approximate
05:35PM 18.0731 -94.5677 306° West  Level FlightAware Approximate
05:36PM 18.1451 -94.6727 306° West  Level FlightAware Approximate
05:37PM 18.2170 -94.7778 306° West  Level FlightAware Approximate
05:38PM 18.3400 -94.7832 304° West  Level Estimated
05:39PM 18.4035 -94.8943 301° West  Level FlightAware Approximate
05:40PM 18.4670 -95.0054 301° West  Level FlightAware Approximate
05:41PM 18.5305 -95.1166 301° West  Level FlightAware Approximate
05:42PM 18.5938 -95.2278 301° West  Level FlightAware Approximate
05:43PM 18.6572 -95.3392 301° West  Level FlightAware Approximate
05:44PM 18.7204 -95.4506 301° West  Level FlightAware Approximate
05:45PM 18.7836 -95.5622 301° West  Level FlightAware Approximate
05:47PM 19.1152 -95.5561 333° Northwest  Level Estimated
05:49PM 19.2236 -95.6760 314° West  Level FlightAware Approximate
05:50PM 19.3080 -95.7694 314° West  Level FlightAware Approximate
05:51PM 19.3924 -95.8630 314° West  Level FlightAware Approximate
05:52PM 19.4767 -95.9567 314° West  Level FlightAware Approximate
05:53PM 19.5609 -96.0504 314° West  Level FlightAware Approximate
05:54PM 19.6451 -96.1443 314° West  Level FlightAware Approximate
05:55PM 19.7293 -96.2383 314° West  Level FlightAware Approximate
05:56PM 19.8134 -96.3323 314° West  Level FlightAware Approximate
05:57PM 19.9351 -96.3213 338° Northwest  Level Estimated
05:58PM 20.0567 -96.3103 334° Northwest  Level Estimated
05:59PM 20.1597 -96.3803 327° Northwest  Level FlightAware Approximate
06:00PM 20.2626 -96.4504 327° Northwest  Level FlightAware Approximate
06:01PM 20.3654 -96.5205 327° Northwest  Level FlightAware Approximate
06:02PM 20.4683 -96.5908 327° Northwest  Level FlightAware Approximate
06:03PM 20.5711 -96.6611 327° Northwest  Level FlightAware Approximate
06:04PM 20.6739 -96.7315 327° Northwest  Level FlightAware Approximate
06:05PM 20.7766 -96.8021 327° Northwest  Level FlightAware Approximate
06:06PM 20.8794 -96.8727 327° Northwest  Level FlightAware Approximate
06:07PM 20.9820 -96.9434 327° Northwest  Level FlightAware Approximate
06:08PM 21.0847 -97.0142 327° Northwest  Level FlightAware Approximate
06:09PM 21.1874 -97.0852 327° Northwest  Level FlightAware Approximate
06:10PM 21.2900 -97.1562 327° Northwest  Level FlightAware Approximate
06:11PM 21.3925 -97.2273 327° Northwest  Level FlightAware Approximate
06:12PM 21.4951 -97.2985 327° Northwest  Level FlightAware Approximate
06:13PM 21.5976 -97.3698 327° Northwest  Level FlightAware Approximate
06:14PM 21.7001 -97.4412 327° Northwest  Level FlightAware Approximate
06:15PM 21.8026 -97.5127 327° Northwest  Level FlightAware Approximate
06:16PM 21.9216 -97.4832 North  Level Estimated
06:17PM 22.0411 -97.5102 348° North  Level FlightAware Approximate
06:18PM 22.1606 -97.5372 348° North  Level FlightAware Approximate
06:19PM 22.2801 -97.5643 348° North  Level FlightAware Approximate
06:20PM 22.3996 -97.5914 348° North  Level FlightAware Approximate
06:21PM 22.5191 -97.6186 348° North  Level FlightAware Approximate
06:22PM 22.6386 -97.6458 348° North  Level FlightAware Approximate
06:23PM 22.7564 -97.6111 North  Level Estimated
06:24PM 22.8785 -97.6105 North  Level FlightAware Approximate
06:25PM 23.0006 -97.6099 North  Level FlightAware Approximate
06:26PM 23.1227 -97.6093 North  Level FlightAware Approximate
06:27PM 23.2448 -97.6088 North  Level FlightAware Approximate
06:28PM 23.3669 -97.6082 North  Level FlightAware Approximate
06:29PM 23.4890 -97.6076 North  Level FlightAware Approximate
06:30PM 23.6111 -97.6070 North  Level FlightAware Approximate
06:31PM 23.7332 -97.6064 North  Level FlightAware Approximate
06:32PM 23.8553 -97.6059 North  Level FlightAware Approximate
06:33PM 23.9774 -97.6053 North  Level FlightAware Approximate
06:33PM 25.0392 -97.4797 North 474 545 37,000  Level Houston Center
06:34PM 24.0995 -97.6047 North  Level FlightAware Approximate
06:34PM 25.1703 -97.4622 North 473 544 37,000  Level Houston Center
06:35PM 24.2216 -97.6041 North  Level FlightAware Approximate
06:36PM 24.3437 -97.6035 North  Level FlightAware Approximate
06:36PM 25.3256 -97.4447 North 469 540 37,000  Level Houston Center
06:37PM 24.4658 -97.6029 North  Level FlightAware Approximate
06:37PM 25.4564 -97.4297 North 472 543 36,900  Level Houston Center
06:38PM 24.5809 -97.5581 North  Level Estimated
06:38PM 25.5961 -97.3936 13° North 480 552 37,000  Level Houston Center
06:39PM 24.7029 -97.5538 North  Level FlightAware Approximate
06:39PM 25.7364 -97.3514 15° North 485 558 37,000  Level Houston Center
06:40PM 25.8658 -97.3119 15° North 484 557 37,000  Level Houston Center
06:41PM 26.0072 -97.2697 15° North 488 562 37,000  Level Houston Center
06:42PM 26.1403 -97.2289 15° North 497 572 37,000  Level Houston Center
06:43PM 26.2844 -97.1858 15° North 500 575 37,000  Level Houston Center
06:44PM 26.4186 -97.1453 15° North 502 578 37,000  Level Houston Center
06:45PM 26.5636 -97.1011 15° North 503 579 37,000  Level Houston Center
06:46PM 26.6978 -97.0611 15° North 496 571 37,000  Level Houston Center
06:47PM 26.8344 -97.0192 15° North 500 575 37,000  Level Houston Center
06:48PM 26.9708 -96.9772 15° North 499 574 37,000  Level Houston Center
06:49PM 27.1183 -96.9317 15° North 499 574 37,000  Level Houston Center
06:50PM 27.2542 -96.8894 15° North 496 571 37,000  Level Houston Center
06:51PM 27.3906 -96.8481 15° North 498 573 37,000  Level Houston Center
06:52PM 27.5256 -96.8053 16° North 495 570 37,000  Level Houston Center
06:53PM 27.6600 -96.7642 15° North 491 565 37,000  Level Houston Center
06:54PM 27.8050 -96.7197 15° North 489 563 37,000 -480 Level Houston Center
06:55PM 27.9375 -96.6772 16° North 487 560 36,100 -960 Descending Houston Center
06:56PM 28.0703 -96.6364 15° North 485 558 35,100 -1,020 Descending Houston Center
06:57PM 28.2028 -96.5956 15° North 485 558 34,100 -1,020 Descending Houston Center
06:58PM 28.3353 -96.5506 17° North 489 563 33,000 -1,680 Descending Houston Center
06:59PM 28.4589 -96.5128 15° North 465 535 30,700 -2,280 Descending Houston Center
07:00PM 28.5825 -96.4747 15° North 461 531 28,400 -2,280 Descending Houston Center
07:01PM 28.7028 -96.4369 15° North 452 520 26,100 -2,400 Descending Houston Center
07:02PM 28.8431 -96.3922 16° North 439 505 23,500 -2,280 Descending Houston Center
07:03PM 28.9550 -96.3575 15° North 424 488 21,500 -2,040 Descending Houston Center
07:04PM 29.0631 -96.3225 16° North 409 471 19,400 -2,160 Descending Houston Center
07:05PM 29.0819 -96.3139 22° Northeast 400 460 19,000 -1,980 Descending Houston Center
07:05PM 29.1697 -96.2875 15° North 390 449 17,500 -1,740 Descending Houston Center
07:06PM 29.1669 -96.2886 199° South 396 456 17,500 -2,040 Level Houston Center
07:06PM 29.2658 -96.2578 15° North 380 437 15,600 -1,980 Descending Houston Center
07:07PM 29.2678 -96.2581 353° North 380 437 15,500 -2,100 Descending Houston Center
07:07PM 29.3658 -96.2250 16° North 370 426 13,500 -2,400 Descending Houston Center
07:08PM 29.3861 -96.2197 13° North 370 426 13,000 -2,040 Descending Houston Center
07:08PM 29.4700 -96.1919 16° North 365 420 11,400 -1,860 Descending Houston Center
07:09PM 29.4831 -96.1875 17° North 365 420 11,100 -1,380 Descending Houston Center
07:09PM 29.5561 -96.1439 27° Northeast 351 404 10,000 -1,200 Descending Houston Center
07:10PM 29.5628 -96.1322 57° Northeast 351 404 9,900  Descending Houston Center
07:10PM 29.6028 -96.0522 60° Northeast 346 398 10,000 60 Climbing Houston Center
07:11PM 29.6117 -96.0386 53° Northeast 342 394 10,000 -540 Level Houston Center
07:11PM 29.6575 -95.9569 57° Northeast 314 361 9,500 -600 Descending Houston Center
07:12PM 29.6625 -95.9533 32° Northeast 333 383 9,400 -1,200 Descending Houston Center
07:12PM 29.7211 -95.9161 29° Northeast 299 344 8,400 -1,560 Descending Houston Center
07:13PM 29.7489 -95.8939 35° Northeast 304 350 7,800 -1,320 Descending Houston Center
07:14PM 29.7972 -95.8497 38° Northeast 292 336 7,000 -780 Descending Houston Center
07:14PM 29.8131 -95.8369 35° Northeast 293 337 7,000  Level Houston Center
07:15PM 29.8578 -95.7992 36° Northeast 269 310 7,000 -420 Level Houston Center
07:15PM 29.8733 -95.7858 37° Northeast 278 320 6,600 -1,260 Descending Houston Center
07:16PM 29.9125 -95.7128 58° Northeast 275 316 5,400 -1,320 Descending Houston Center
07:17PM 29.9392 -95.6525 63° Northeast 259 298 4,300 -1,260 Descending Houston Center
07:17PM 29.9456 -95.6392 61° Northeast 263 303 4,100 -900 Descending Houston Center
07:18PM 29.9728 -95.5811 62° Northeast 254 292 3,400 -780 Descending Houston Center
07:18PM 29.9786 -95.5683 62° Northeast 254 292 3,300 -720 Descending Houston Center
07:19PM 29.9919 -95.5136 74° East 213 245 2,700 -780 Descending Houston Center
07:19PM 29.9931 -95.5006 84° East 232 267 2,500 -1,020 Descending Houston Center
07:20PM 29.9922 -95.4483 91° East 186 214 1,700 -1,080 Descending Houston Center
07:20PM 29.9933 -95.4275 86° East 204 235 1,400 -900 Descending Houston Center
07:21PM 29.9939 -95.3975 89° East 146 168 800 -780 Descending Houston Center
07:21PM 29.9933 -95.3819 92° East 170 196 600 -300 Descending Houston Center
07:22PM 29.9919 -95.3358 92° East 165 190 400 -240 Descending Houston Center